CheckWX is a tool to help pilots better visualize weather data.  It is not intended as a substitute for an official pre-flight weather briefing.

04:35:31 UTC

KGWB METAR
De Kalb County Airport
Auburn, Indiana, USA
Current

21 mins ago

KGWB 170415Z AUTO 04003KT 10SM CLR 17/16 A3013 RMK AO2
Observed
Sep-17 @ 04:15 UTC
Wind
  • 040° at 3 KTS
Visibility
10 SM
Flight Rules
VFR
Cloud Levels
  • Clear skies
Temperature
17°C / 63°F
Dewpoint
16°C / 61°F
Humidity
94%
Altimeter
30.13" Hg
Pressure
1020.32 hPa
Previous

41 mins ago

KGWB 170355Z AUTO 04003KT 10SM CLR 17/16 A3014 RMK AO2
Observed
Sep-17 @ 03:55 UTC
Wind
  • 040° at 3 KTS
Visibility
10 SM
Flight Rules
VFR
Cloud Levels
  • Clear skies
Temperature
17°C / 63°F
Dewpoint
16°C / 61°F
Humidity
94%
Altimeter
30.14" Hg
Pressure
1020.62 hPa
Previous

1 hour ago

KGWB 170335Z AUTO 02003KT 10SM CLR 17/17 A3014 RMK AO2
Observed
Sep-17 @ 03:35 UTC
Wind
  • 020° at 3 KTS
Visibility
10 SM
Flight Rules
VFR
Cloud Levels
  • Clear skies
Temperature
17°C / 63°F
Dewpoint
17°C / 63°F
Humidity
100%
Altimeter
30.14" Hg
Pressure
1020.62 hPa